CYZT

Port Hardy Airport

Port Hardy, , Canada
METAR CYZT 220600Z 18003KT 15SM FEW021 SCT032 BKN050 BKN070 05/04 A3045 RMK SC1SC2SC2AC1 SLP314
Observed Flight Rules
Apr-22 @ 06:00 UTC (48 minutes ago) Visual Flight Rules
Wind Visibility Clouds
180° at 3 knots 15 miles
  • Few at 2,100' AGL
  • Scattered at 3,200' AGL
  • Broken at 5,000' AGL
  • Broken at 7,000' AGL
Temperatures Readings
Current 5°C / 41°F
Dewpoint 4°C / 39°F
Humidity 93%
Altimeter 30.45" Hg
Pressure 1031.4 hPa
Elevation 22
METAR CYZT 220600Z 18003KT 15SM FEW021 SCT032 BKN050 BKN070 05/04 A3045 RMK SC1SC2SC2AC1 SLP314
Observed Flight Rules
Apr-22 @ 06:00 UTC
(48 minutes ago)
VFR
Wind Visibility
180° at 3 knots 15 miles
Clouds
  • Few at 2,100' AGL
  • Scattered at 3,200' AGL
  • Broken at 5,000' AGL
  • Broken at 7,000' AGL
Temperature Dewpoint
5°C / 41°F 4°C / 39°F
Humidity Altimeter Pressure
93% 30.45" Hg 1031.4 hPa